sensor_id;sensor_type;location;lat;lon;timestamp;P1;durP1;ratioP1;P2;durP2;ratioP2
32872;SDS011;19224;52.462;16.898;2023-05-14T00:00:12;20.80;;;14.25;;
32872;SDS011;19224;52.462;16.898;2023-05-14T00:02:44;18.92;;;11.55;;
32872;SDS011;19224;52.462;16.898;2023-05-14T00:05:15;19.42;;;10.20;;
32872;SDS011;19224;52.462;16.898;2023-05-14T00:07:45;16.10;;;10.30;;
32872;SDS011;19224;52.462;16.898;2023-05-14T00:10:15;17.15;;;10.68;;
32872;SDS011;19224;52.462;16.898;2023-05-14T00:12:48;15.95;;;10.55;;
32872;SDS011;19224;52.462;16.898;2023-05-14T00:15:19;20.05;;;10.18;;
32872;SDS011;19224;52.462;16.898;2023-05-14T00:17:49;13.10;;;9.35;;
32872;SDS011;19224;52.462;16.898;2023-05-14T00:20:19;14.43;;;9.63;;
32872;SDS011;19224;52.462;16.898;2023-05-14T00:22:50;15.35;;;9.40;;
32872;SDS011;19224;52.462;16.898;2023-05-14T00:25:20;18.70;;;10.23;;
32872;SDS011;19224;52.462;16.898;2023-05-14T00:27:51;18.05;;;10.10;;
32872;SDS011;19224;52.462;16.898;2023-05-14T00:30:21;16.25;;;10.03;;
32872;SDS011;19224;52.462;16.898;2023-05-14T00:32:51;17.50;;;9.78;;
32872;SDS011;19224;52.462;16.898;2023-05-14T00:35:22;17.27;;;9.85;;
32872;SDS011;19224;52.462;16.898;2023-05-14T00:37:52;18.05;;;9.25;;
32872;SDS011;19224;52.462;16.898;2023-05-14T00:40:28;15.28;;;9.40;;
32872;SDS011;19224;52.462;16.898;2023-05-14T00:42:55;18.80;;;10.28;;
32872;SDS011;19224;52.462;16.898;2023-05-14T00:45:25;15.60;;;9.20;;
32872;SDS011;19224;52.462;16.898;2023-05-14T00:47:56;14.10;;;8.85;;
32872;SDS011;19224;52.462;16.898;2023-05-14T00:50:27;16.95;;;8.98;;
32872;SDS011;19224;52.462;16.898;2023-05-14T00:52:57;64.77;;;31.87;;
32872;SDS011;19224;52.462;16.898;2023-05-14T00:55:28;21.77;;;13.50;;
32872;SDS011;19224;52.462;16.898;2023-05-14T00:57:59;19.92;;;10.28;;
32872;SDS011;19224;52.462;16.898;2023-05-14T01:00:30;16.95;;;9.08;;
32872;SDS011;19224;52.462;16.898;2023-05-14T01:03:06;16.35;;;8.55;;
32872;SDS011;19224;52.462;16.898;2023-05-14T01:11:46;12.00;;;8.90;;
32872;SDS011;19224;52.462;16.898;2023-05-14T01:17:09;14.75;;;8.73;;
32872;SDS011;19224;52.462;16.898;2023-05-14T01:19:42;19.23;;;8.98;;
32872;SDS011;19224;52.462;16.898;2023-05-14T01:22:14;14.23;;;8.78;;
32872;SDS011;19224;52.462;16.898;2023-05-14T01:24:45;16.50;;;9.30;;
32872;SDS011;19224;52.462;16.898;2023-05-14T01:30:35;13.32;;;9.00;;
32872;SDS011;19224;52.462;16.898;2023-05-14T01:33:13;12.37;;;8.63;;
32872;SDS011;19224;52.462;16.898;2023-05-14T01:35:42;15.93;;;8.95;;
32872;SDS011;19224;52.462;16.898;2023-05-14T01:38:14;14.18;;;8.50;;
32872;SDS011;19224;52.462;16.898;2023-05-14T01:40:46;15.90;;;9.20;;
32872;SDS011;19224;52.462;16.898;2023-05-14T01:43:18;13.00;;;8.20;;
32872;SDS011;19224;52.462;16.898;2023-05-14T01:45:50;15.30;;;8.43;;
32872;SDS011;19224;52.462;16.898;2023-05-14T01:48:21;18.20;;;8.55;;
32872;SDS011;19224;52.462;16.898;2023-05-14T01:50:53;14.95;;;9.40;;
32872;SDS011;19224;52.462;16.898;2023-05-14T01:53:23;15.83;;;8.53;;
32872;SDS011;19224;52.462;16.898;2023-05-14T01:55:56;18.55;;;8.73;;
32872;SDS011;19224;52.462;16.898;2023-05-14T01:58:26;19.10;;;8.33;;
32872;SDS011;19224;52.462;16.898;2023-05-14T02:00:56;17.42;;;8.78;;
32872;SDS011;19224;52.462;16.898;2023-05-14T02:03:26;12.18;;;8.35;;
32872;SDS011;19224;52.462;16.898;2023-05-14T02:05:56;15.50;;;8.75;;
32872;SDS011;19224;52.462;16.898;2023-05-14T02:08:27;17.15;;;8.75;;
32872;SDS011;19224;52.462;16.898;2023-05-14T02:10:57;14.75;;;8.45;;
32872;SDS011;19224;52.462;16.898;2023-05-14T02:13:27;18.60;;;8.75;;
32872;SDS011;19224;52.462;16.898;2023-05-14T02:16:00;15.83;;;8.45;;
32872;SDS011;19224;52.462;16.898;2023-05-14T02:18:36;12.80;;;7.97;;
32872;SDS011;19224;52.462;16.898;2023-05-14T02:21:02;15.60;;;8.20;;
32872;SDS011;19224;52.462;16.898;2023-05-14T02:23:32;12.55;;;8.03;;
32872;SDS011;19224;52.462;16.898;2023-05-14T02:26:03;19.35;;;7.97;;
32872;SDS011;19224;52.462;16.898;2023-05-14T02:28:35;16.48;;;8.48;;
32872;SDS011;19224;52.462;16.898;2023-05-14T02:31:05;12.30;;;7.87;;
32872;SDS011;19224;52.462;16.898;2023-05-14T02:33:35;16.25;;;8.65;;
32872;SDS011;19224;52.462;16.898;2023-05-14T02:36:06;15.03;;;9.43;;
32872;SDS011;19224;52.462;16.898;2023-05-14T02:38:36;14.53;;;8.38;;
32872;SDS011;19224;52.462;16.898;2023-05-14T02:41:07;12.90;;;8.65;;
32872;SDS011;19224;52.462;16.898;2023-05-14T02:43:37;14.30;;;8.78;;
32872;SDS011;19224;52.462;16.898;2023-05-14T02:46:08;14.10;;;8.88;;
32872;SDS011;19224;52.462;16.898;2023-05-14T02:48:38;17.23;;;8.95;;
32872;SDS011;19224;52.462;16.898;2023-05-14T02:51:08;15.45;;;8.70;;
32872;SDS011;19224;52.462;16.898;2023-05-14T02:53:39;13.40;;;7.92;;
32872;SDS011;19224;52.462;16.898;2023-05-14T02:56:10;12.10;;;8.35;;
32872;SDS011;19224;52.462;16.898;2023-05-14T02:58:40;18.27;;;8.95;;
32872;SDS011;19224;52.462;16.898;2023-05-14T03:01:11;15.68;;;8.15;;
32872;SDS011;19224;52.462;16.898;2023-05-14T03:03:41;12.37;;;8.80;;
32872;SDS011;19224;52.462;16.898;2023-05-14T03:06:12;15.75;;;9.15;;
32872;SDS011;19224;52.462;16.898;2023-05-14T03:08:42;16.40;;;8.30;;
32872;SDS011;19224;52.462;16.898;2023-05-14T03:11:12;19.90;;;8.73;;
32872;SDS011;19224;52.462;16.898;2023-05-14T03:13:43;20.55;;;9.38;;
32872;SDS011;19224;52.462;16.898;2023-05-14T03:16:13;17.65;;;9.38;;
32872;SDS011;19224;52.462;16.898;2023-05-14T03:18:43;20.30;;;9.38;;
32872;SDS011;19224;52.462;16.898;2023-05-14T03:21:13;15.40;;;8.88;;
32872;SDS011;19224;52.462;16.898;2023-05-14T03:23:44;15.80;;;9.45;;
32872;SDS011;19224;52.462;16.898;2023-05-14T03:26:14;13.20;;;8.75;;
32872;SDS011;19224;52.462;16.898;2023-05-14T03:28:44;16.85;;;9.48;;
32872;SDS011;19224;52.462;16.898;2023-05-14T03:31:15;18.98;;;9.33;;
32872;SDS011;19224;52.462;16.898;2023-05-14T03:33:45;16.93;;;9.35;;
32872;SDS011;19224;52.462;16.898;2023-05-14T03:36:15;16.62;;;9.83;;
32872;SDS011;19224;52.462;16.898;2023-05-14T03:38:45;20.40;;;9.88;;
32872;SDS011;19224;52.462;16.898;2023-05-14T03:41:16;20.45;;;10.45;;
32872;SDS011;19224;52.462;16.898;2023-05-14T03:43:47;17.10;;;10.45;;
32872;SDS011;19224;52.462;16.898;2023-05-14T03:46:17;22.45;;;10.90;;
32872;SDS011;19224;52.462;16.898;2023-05-14T03:48:47;23.95;;;11.57;;
32872;SDS011;19224;52.462;16.898;2023-05-14T03:51:17;17.48;;;10.38;;
32872;SDS011;19224;52.462;16.898;2023-05-14T03:53:48;41.95;;;13.60;;
32872;SDS011;19224;52.462;16.898;2023-05-14T03:56:18;31.57;;;11.63;;
32872;SDS011;19224;52.462;16.898;2023-05-14T03:58:49;18.23;;;9.98;;
32872;SDS011;19224;52.462;16.898;2023-05-14T04:01:20;16.95;;;9.45;;
32872;SDS011;19224;52.462;16.898;2023-05-14T04:03:52;16.93;;;10.18;;
32872;SDS011;19224;52.462;16.898;2023-05-14T04:06:23;16.85;;;9.88;;
32872;SDS011;19224;52.462;16.898;2023-05-14T04:08:53;18.32;;;10.18;;
32872;SDS011;19224;52.462;16.898;2023-05-14T04:11:23;13.32;;;9.45;;
32872;SDS011;19224;52.462;16.898;2023-05-14T04:13:53;17.80;;;9.60;;
32872;SDS011;19224;52.462;16.898;2023-05-14T04:16:24;22.35;;;10.75;;
32872;SDS011;19224;52.462;16.898;2023-05-14T04:18:55;29.65;;;11.15;;
32872;SDS011;19224;52.462;16.898;2023-05-14T04:21:25;17.92;;;10.23;;
32872;SDS011;19224;52.462;16.898;2023-05-14T04:23:55;15.78;;;9.88;;
32872;SDS011;19224;52.462;16.898;2023-05-14T04:26:26;18.17;;;10.30;;
32872;SDS011;19224;52.462;16.898;2023-05-14T04:28:56;17.00;;;9.50;;
32872;SDS011;19224;52.462;16.898;2023-05-14T04:31:28;16.90;;;10.48;;
32872;SDS011;19224;52.462;16.898;2023-05-14T04:33:59;18.70;;;9.83;;
32872;SDS011;19224;52.462;16.898;2023-05-14T04:36:29;20.10;;;9.50;;
32872;SDS011;19224;52.462;16.898;2023-05-14T04:38:59;15.18;;;9.63;;
32872;SDS011;19224;52.462;16.898;2023-05-14T04:41:30;17.67;;;10.15;;
32872;SDS011;19224;52.462;16.898;2023-05-14T04:44:01;20.35;;;10.20;;
32872;SDS011;19224;52.462;16.898;2023-05-14T04:46:32;20.95;;;10.95;;
32872;SDS011;19224;52.462;16.898;2023-05-14T04:49:02;20.30;;;10.15;;
32872;SDS011;19224;52.462;16.898;2023-05-14T04:51:32;14.47;;;9.80;;
32872;SDS011;19224;52.462;16.898;2023-05-14T04:54:03;14.47;;;10.05;;
32872;SDS011;19224;52.462;16.898;2023-05-14T04:56:33;15.40;;;9.88;;
32872;SDS011;19224;52.462;16.898;2023-05-14T04:59:04;19.62;;;9.55;;
32872;SDS011;19224;52.462;16.898;2023-05-14T05:01:34;19.05;;;9.63;;
32872;SDS011;19224;52.462;16.898;2023-05-14T05:04:05;16.60;;;10.15;;
32872;SDS011;19224;52.462;16.898;2023-05-14T05:06:36;13.20;;;9.33;;
32872;SDS011;19224;52.462;16.898;2023-05-14T05:09:08;18.75;;;9.38;;
32872;SDS011;19224;52.462;16.898;2023-05-14T05:11:39;16.95;;;9.78;;
32872;SDS011;19224;52.462;16.898;2023-05-14T05:14:09;21.05;;;10.90;;
32872;SDS011;19224;52.462;16.898;2023-05-14T05:16:40;19.67;;;10.53;;
32872;SDS011;19224;52.462;16.898;2023-05-14T05:19:11;21.95;;;10.53;;
32872;SDS011;19224;52.462;16.898;2023-05-14T05:21:41;20.65;;;10.78;;
32872;SDS011;19224;52.462;16.898;2023-05-14T05:24:12;16.48;;;9.83;;
32872;SDS011;19224;52.462;16.898;2023-05-14T05:26:42;18.65;;;10.00;;
32872;SDS011;19224;52.462;16.898;2023-05-14T05:29:13;14.20;;;10.28;;
32872;SDS011;19224;52.462;16.898;2023-05-14T05:31:43;19.35;;;10.40;;
32872;SDS011;19224;52.462;16.898;2023-05-14T05:34:13;17.25;;;9.68;;
32872;SDS011;19224;52.462;16.898;2023-05-14T05:36:44;18.50;;;10.08;;
32872;SDS011;19224;52.462;16.898;2023-05-14T05:39:14;15.50;;;9.83;;
32872;SDS011;19224;52.462;16.898;2023-05-14T05:41:44;20.55;;;10.80;;
32872;SDS011;19224;52.462;16.898;2023-05-14T05:44:15;17.85;;;11.10;;
32872;SDS011;19224;52.462;16.898;2023-05-14T05:46:45;17.90;;;10.95;;
32872;SDS011;19224;52.462;16.898;2023-05-14T05:49:15;17.80;;;11.10;;
32872;SDS011;19224;52.462;16.898;2023-05-14T05:51:45;17.20;;;11.08;;
32872;SDS011;19224;52.462;16.898;2023-05-14T05:54:16;21.73;;;11.28;;
32872;SDS011;19224;52.462;16.898;2023-05-14T05:56:46;17.10;;;10.80;;
32872;SDS011;19224;52.462;16.898;2023-05-14T05:59:16;21.90;;;12.23;;
32872;SDS011;19224;52.462;16.898;2023-05-14T06:01:46;18.45;;;10.60;;
32872;SDS011;19224;52.462;16.898;2023-05-14T06:04:17;19.82;;;11.00;;
32872;SDS011;19224;52.462;16.898;2023-05-14T06:06:47;48.65;;;14.47;;
32872;SDS011;19224;52.462;16.898;2023-05-14T06:09:17;18.48;;;10.75;;
32872;SDS011;19224;52.462;16.898;2023-05-14T06:11:48;18.70;;;10.63;;
32872;SDS011;19224;52.462;16.898;2023-05-14T06:14:18;16.23;;;10.93;;
32872;SDS011;19224;52.462;16.898;2023-05-14T06:16:48;18.00;;;10.40;;
32872;SDS011;19224;52.462;16.898;2023-05-14T06:19:18;24.77;;;10.40;;
32872;SDS011;19224;52.462;16.898;2023-05-14T06:21:50;15.98;;;10.78;;
32872;SDS011;19224;52.462;16.898;2023-05-14T06:24:21;17.52;;;9.50;;
32872;SDS011;19224;52.462;16.898;2023-05-14T06:26:51;16.93;;;9.55;;
32872;SDS011;19224;52.462;16.898;2023-05-14T06:29:21;16.35;;;9.53;;
32872;SDS011;19224;52.462;16.898;2023-05-14T06:31:51;18.65;;;9.15;;
32872;SDS011;19224;52.462;16.898;2023-05-14T06:34:22;12.07;;;8.63;;
32872;SDS011;19224;52.462;16.898;2023-05-14T06:36:52;14.45;;;8.30;;
32872;SDS011;19224;52.462;16.898;2023-05-14T06:39:22;16.42;;;8.90;;
32872;SDS011;19224;52.462;16.898;2023-05-14T06:41:55;15.55;;;8.48;;
32872;SDS011;19224;52.462;16.898;2023-05-14T06:44:27;14.65;;;8.53;;
32872;SDS011;19224;52.462;16.898;2023-05-14T06:46:57;19.73;;;9.45;;
32872;SDS011;19224;52.462;16.898;2023-05-14T06:49:27;16.62;;;9.08;;
32872;SDS011;19224;52.462;16.898;2023-05-14T06:51:58;19.32;;;8.93;;
32872;SDS011;19224;52.462;16.898;2023-05-14T06:54:28;13.10;;;8.43;;
32872;SDS011;19224;52.462;16.898;2023-05-14T06:56:59;13.75;;;8.55;;
32872;SDS011;19224;52.462;16.898;2023-05-14T06:59:30;14.90;;;8.68;;
32872;SDS011;19224;52.462;16.898;2023-05-14T07:02:00;12.45;;;7.90;;
32872;SDS011;19224;52.462;16.898;2023-05-14T07:04:30;11.73;;;7.35;;
32872;SDS011;19224;52.462;16.898;2023-05-14T07:07:01;15.23;;;7.55;;
32872;SDS011;19224;52.462;16.898;2023-05-14T07:09:32;18.55;;;7.30;;
32872;SDS011;19224;52.462;16.898;2023-05-14T07:12:03;18.27;;;7.72;;
32872;SDS011;19224;52.462;16.898;2023-05-14T07:14:34;13.35;;;6.97;;
32872;SDS011;19224;52.462;16.898;2023-05-14T07:17:07;12.37;;;7.65;;
32872;SDS011;19224;52.462;16.898;2023-05-14T07:19:37;14.28;;;6.90;;
32872;SDS011;19224;52.462;16.898;2023-05-14T07:22:11;10.78;;;6.65;;
32872;SDS011;19224;52.462;16.898;2023-05-14T07:24:43;13.60;;;6.53;;
32872;SDS011;19224;52.462;16.898;2023-05-14T07:27:14;14.25;;;6.35;;
32872;SDS011;19224;52.462;16.898;2023-05-14T07:29:45;10.32;;;6.75;;
32872;SDS011;19224;52.462;16.898;2023-05-14T07:32:15;18.98;;;7.05;;
32872;SDS011;19224;52.462;16.898;2023-05-14T07:34:45;10.38;;;5.50;;
32872;SDS011;19224;52.462;16.898;2023-05-14T07:37:16;12.95;;;5.95;;
32872;SDS011;19224;52.462;16.898;2023-05-14T07:39:46;10.93;;;6.37;;
32872;SDS011;19224;52.462;16.898;2023-05-14T07:42:17;9.13;;;6.10;;
32872;SDS011;19224;52.462;16.898;2023-05-14T07:44:47;10.65;;;7.00;;
32872;SDS011;19224;52.462;16.898;2023-05-14T07:47:21;13.53;;;5.97;;
32872;SDS011;19224;52.462;16.898;2023-05-14T07:49:55;9.88;;;6.37;;
32872;SDS011;19224;52.462;16.898;2023-05-14T07:52:27;15.00;;;7.33;;
32872;SDS011;19224;52.462;16.898;2023-05-14T07:54:57;153.93;;;21.05;;
32872;SDS011;19224;52.462;16.898;2023-05-14T07:57:29;15.88;;;6.40;;
32872;SDS011;19224;52.462;16.898;2023-05-14T08:00:02;64.27;;;9.43;;
32872;SDS011;19224;52.462;16.898;2023-05-14T08:02:37;14.40;;;5.62;;
32872;SDS011;19224;52.462;16.898;2023-05-14T08:05:09;49.03;;;8.05;;
32872;SDS011;19224;52.462;16.898;2023-05-14T08:07:40;10.13;;;5.20;;
32872;SDS011;19224;52.462;16.898;2023-05-14T08:10:13;10.45;;;5.58;;
32872;SDS011;19224;52.462;16.898;2023-05-14T08:12:44;10.25;;;5.60;;
32872;SDS011;19224;52.462;16.898;2023-05-14T08:15:14;9.23;;;5.17;;
32872;SDS011;19224;52.462;16.898;2023-05-14T08:17:46;11.30;;;5.85;;
32872;SDS011;19224;52.462;16.898;2023-05-14T08:20:19;13.38;;;5.72;;
32872;SDS011;19224;52.462;16.898;2023-05-14T08:22:54;16.30;;;6.37;;
32872;SDS011;19224;52.462;16.898;2023-05-14T08:25:25;11.25;;;5.30;;
32872;SDS011;19224;52.462;16.898;2023-05-14T08:27:57;8.10;;;5.00;;
32872;SDS011;19224;52.462;16.898;2023-05-14T08:30:29;8.90;;;4.80;;
32872;SDS011;19224;52.462;16.898;2023-05-14T08:33:01;11.88;;;4.97;;
32872;SDS011;19224;52.462;16.898;2023-05-14T08:35:31;6.60;;;4.60;;
32872;SDS011;19224;52.462;16.898;2023-05-14T08:38:02;8.20;;;4.65;;
32872;SDS011;19224;52.462;16.898;2023-05-14T08:40:32;11.00;;;4.47;;
32872;SDS011;19224;52.462;16.898;2023-05-14T08:43:04;6.83;;;3.72;;
32872;SDS011;19224;52.462;16.898;2023-05-14T08:45:36;7.33;;;4.05;;
32872;SDS011;19224;52.462;16.898;2023-05-14T08:48:10;8.13;;;3.60;;
32872;SDS011;19224;52.462;16.898;2023-05-14T08:50:44;12.65;;;3.55;;
32872;SDS011;19224;52.462;16.898;2023-05-14T08:53:14;6.08;;;3.20;;
32872;SDS011;19224;52.462;16.898;2023-05-14T08:55:45;6.42;;;3.37;;
32872;SDS011;19224;52.462;16.898;2023-05-14T08:58:19;7.35;;;3.67;;
32872;SDS011;19224;52.462;16.898;2023-05-14T09:00:56;6.58;;;3.20;;
32872;SDS011;19224;52.462;16.898;2023-05-14T09:03:33;8.80;;;3.33;;
32872;SDS011;19224;52.462;16.898;2023-05-14T09:06:04;5.58;;;3.50;;
32872;SDS011;19224;52.462;16.898;2023-05-14T09:08:35;9.78;;;3.72;;
32872;SDS011;19224;52.462;16.898;2023-05-14T09:11:06;6.47;;;3.70;;
32872;SDS011;19224;52.462;16.898;2023-05-14T09:13:40;11.48;;;3.92;;
32872;SDS011;19224;52.462;16.898;2023-05-14T09:16:14;8.75;;;3.80;;
32872;SDS011;19224;52.462;16.898;2023-05-14T09:18:54;7.80;;;4.10;;
32872;SDS011;19224;52.462;16.898;2023-05-14T09:21:21;12.65;;;4.55;;
32872;SDS011;19224;52.462;16.898;2023-05-14T09:23:56;7.72;;;4.62;;
32872;SDS011;19224;52.462;16.898;2023-05-14T09:26:25;10.28;;;3.98;;
32872;SDS011;19224;52.462;16.898;2023-05-14T09:29:00;7.47;;;3.70;;
32872;SDS011;19224;52.462;16.898;2023-05-14T09:31:34;9.98;;;3.62;;
32872;SDS011;19224;52.462;16.898;2023-05-14T09:34:05;11.30;;;3.30;;
32872;SDS011;19224;52.462;16.898;2023-05-14T09:36:35;9.13;;;3.30;;
32872;SDS011;19224;52.462;16.898;2023-05-14T09:39:07;7.33;;;2.83;;
32872;SDS011;19224;52.462;16.898;2023-05-14T09:41:37;9.08;;;3.25;;
32872;SDS011;19224;52.462;16.898;2023-05-14T09:44:07;6.37;;;3.70;;
32872;SDS011;19224;52.462;16.898;2023-05-14T09:46:38;8.65;;;3.75;;
32872;SDS011;19224;52.462;16.898;2023-05-14T09:49:08;7.53;;;3.67;;
32872;SDS011;19224;52.462;16.898;2023-05-14T09:51:38;5.58;;;3.25;;
32872;SDS011;19224;52.462;16.898;2023-05-14T09:54:12;8.03;;;3.20;;
32872;SDS011;19224;52.462;16.898;2023-05-14T09:56:44;9.50;;;3.45;;
32872;SDS011;19224;52.462;16.898;2023-05-14T09:59:14;11.05;;;3.30;;
32872;SDS011;19224;52.462;16.898;2023-05-14T10:01:45;5.58;;;3.00;;
32872;SDS011;19224;52.462;16.898;2023-05-14T10:04:16;6.22;;;3.05;;
32872;SDS011;19224;52.462;16.898;2023-05-14T10:06:48;7.67;;;3.30;;
32872;SDS011;19224;52.462;16.898;2023-05-14T10:09:20;5.05;;;3.08;;
32872;SDS011;19224;52.462;16.898;2023-05-14T10:11:56;12.90;;;2.85;;
32872;SDS011;19224;52.462;16.898;2023-05-14T10:14:37;6.22;;;2.60;;
32872;SDS011;19224;52.462;16.898;2023-05-14T10:17:08;9.93;;;3.00;;
32872;SDS011;19224;52.462;16.898;2023-05-14T10:19:45;6.25;;;3.00;;
32872;SDS011;19224;52.462;16.898;2023-05-14T10:22:26;6.40;;;2.98;;
32872;SDS011;19224;52.462;16.898;2023-05-14T10:24:56;5.50;;;3.00;;
32872;SDS011;19224;52.462;16.898;2023-05-14T10:27:28;5.85;;;3.00;;
32872;SDS011;19224;52.462;16.898;2023-05-14T10:29:59;13.22;;;5.17;;
32872;SDS011;19224;52.462;16.898;2023-05-14T10:32:42;7.62;;;3.15;;
32872;SDS011;19224;52.462;16.898;2023-05-14T10:35:15;8.15;;;2.98;;
32872;SDS011;19224;52.462;16.898;2023-05-14T10:37:49;5.95;;;2.92;;
32872;SDS011;19224;52.462;16.898;2023-05-14T10:40:20;6.15;;;3.00;;
32872;SDS011;19224;52.462;16.898;2023-05-14T10:42:52;5.62;;;3.15;;
32872;SDS011;19224;52.462;16.898;2023-05-14T10:45:25;9.43;;;2.90;;
32872;SDS011;19224;52.462;16.898;2023-05-14T10:47:57;9.13;;;3.42;;
32872;SDS011;19224;52.462;16.898;2023-05-14T10:50:28;13.10;;;3.80;;
32872;SDS011;19224;52.462;16.898;2023-05-14T10:52:59;3.60;;;2.83;;
32872;SDS011;19224;52.462;16.898;2023-05-14T10:55:30;6.22;;;2.80;;
32872;SDS011;19224;52.462;16.898;2023-05-14T10:58:02;5.90;;;3.20;;
32872;SDS011;19224;52.462;16.898;2023-05-14T11:00:39;4.53;;;3.30;;
32872;SDS011;19224;52.462;16.898;2023-05-14T11:03:05;6.22;;;2.80;;
32872;SDS011;19224;52.462;16.898;2023-05-14T11:05:39;9.38;;;3.67;;
32872;SDS011;19224;52.462;16.898;2023-05-14T11:08:14;10.78;;;3.77;;
32872;SDS011;19224;52.462;16.898;2023-05-14T11:10:45;7.67;;;3.20;;
32872;SDS011;19224;52.462;16.898;2023-05-14T11:13:22;7.33;;;3.15;;
32872;SDS011;19224;52.462;16.898;2023-05-14T11:15:56;7.05;;;3.40;;
32872;SDS011;19224;52.462;16.898;2023-05-14T11:18:30;8.98;;;3.83;;
32872;SDS011;19224;52.462;16.898;2023-05-14T11:21:04;5.83;;;3.50;;
32872;SDS011;19224;52.462;16.898;2023-05-14T11:23:34;7.17;;;3.50;;
32872;SDS011;19224;52.462;16.898;2023-05-14T11:26:05;6.92;;;3.20;;
32872;SDS011;19224;52.462;16.898;2023-05-14T11:28:36;12.20;;;3.47;;
32872;SDS011;19224;52.462;16.898;2023-05-14T11:31:07;10.45;;;3.45;;
32872;SDS011;19224;52.462;16.898;2023-05-14T11:33:39;9.90;;;3.30;;
32872;SDS011;19224;52.462;16.898;2023-05-14T11:36:10;11.45;;;3.87;;
32872;SDS011;19224;52.462;16.898;2023-05-14T11:38:47;4.87;;;3.60;;
32872;SDS011;19224;52.462;16.898;2023-05-14T11:41:19;8.98;;;3.60;;
32872;SDS011;19224;52.462;16.898;2023-05-14T11:43:49;6.40;;;3.55;;
32872;SDS011;19224;52.462;16.898;2023-05-14T11:46:20;7.62;;;3.67;;
32872;SDS011;19224;52.462;16.898;2023-05-14T11:48:52;9.85;;;4.00;;
32872;SDS011;19224;52.462;16.898;2023-05-14T11:51:22;5.42;;;3.22;;
32872;SDS011;19224;52.462;16.898;2023-05-14T11:53:53;7.55;;;3.80;;
32872;SDS011;19224;52.462;16.898;2023-05-14T11:56:25;14.63;;;3.83;;
32872;SDS011;19224;52.462;16.898;2023-05-14T11:58:55;5.45;;;3.05;;
32872;SDS011;19224;52.462;16.898;2023-05-14T12:01:29;6.22;;;3.70;;
32872;SDS011;19224;52.462;16.898;2023-05-14T12:04:07;6.65;;;3.70;;
32872;SDS011;19224;52.462;16.898;2023-05-14T12:06:37;6.15;;;3.37;;
32872;SDS011;19224;52.462;16.898;2023-05-14T12:09:11;5.92;;;2.90;;
32872;SDS011;19224;52.462;16.898;2023-05-14T12:11:42;12.80;;;3.50;;
32872;SDS011;19224;52.462;16.898;2023-05-14T12:14:19;5.67;;;3.35;;
32872;SDS011;19224;52.462;16.898;2023-05-14T12:16:49;9.98;;;3.45;;
32872;SDS011;19224;52.462;16.898;2023-05-14T12:19:20;11.05;;;3.77;;
32872;SDS011;19224;52.462;16.898;2023-05-14T12:21:51;8.68;;;4.10;;
32872;SDS011;19224;52.462;16.898;2023-05-14T12:24:24;5.95;;;3.40;;
32872;SDS011;19224;52.462;16.898;2023-05-14T12:26:53;7.45;;;3.25;;
32872;SDS011;19224;52.462;16.898;2023-05-14T12:29:24;6.95;;;3.30;;
32872;SDS011;19224;52.462;16.898;2023-05-14T12:31:56;7.87;;;2.85;;
32872;SDS011;19224;52.462;16.898;2023-05-14T12:34:27;7.25;;;3.02;;
32872;SDS011;19224;52.462;16.898;2023-05-14T12:37:04;10.60;;;2.95;;
32872;SDS011;19224;52.462;16.898;2023-05-14T12:39:31;7.47;;;3.42;;
32872;SDS011;19224;52.462;16.898;2023-05-14T12:42:03;11.68;;;3.27;;
32872;SDS011;19224;52.462;16.898;2023-05-14T12:44:34;7.67;;;4.45;;
32872;SDS011;19224;52.462;16.898;2023-05-14T12:47:05;8.45;;;4.47;;
32872;SDS011;19224;52.462;16.898;2023-05-14T12:49:36;10.05;;;4.60;;
32872;SDS011;19224;52.462;16.898;2023-05-14T12:52:06;8.98;;;2.92;;
32872;SDS011;19224;52.462;16.898;2023-05-14T12:54:37;5.55;;;3.50;;
32872;SDS011;19224;52.462;16.898;2023-05-14T12:57:19;14.00;;;3.45;;
32872;SDS011;19224;52.462;16.898;2023-05-14T12:59:48;8.60;;;3.27;;
32872;SDS011;19224;52.462;16.898;2023-05-14T13:02:18;6.80;;;3.35;;
32872;SDS011;19224;52.462;16.898;2023-05-14T13:04:49;3.92;;;3.05;;
32872;SDS011;19224;52.462;16.898;2023-05-14T13:07:19;5.22;;;2.92;;
32872;SDS011;19224;52.462;16.898;2023-05-14T13:09:49;9.70;;;3.42;;
32872;SDS011;19224;52.462;16.898;2023-05-14T13:12:20;6.92;;;3.33;;
32872;SDS011;19224;52.462;16.898;2023-05-14T13:14:51;7.25;;;3.17;;
32872;SDS011;19224;52.462;16.898;2023-05-14T13:17:22;6.58;;;3.05;;
32872;SDS011;19224;52.462;16.898;2023-05-14T13:19:57;6.42;;;3.17;;
32872;SDS011;19224;52.462;16.898;2023-05-14T13:22:29;7.65;;;4.22;;
32872;SDS011;19224;52.462;16.898;2023-05-14T13:24:59;6.28;;;3.52;;
32872;SDS011;19224;52.462;16.898;2023-05-14T13:27:31;6.15;;;2.90;;
32872;SDS011;19224;52.462;16.898;2023-05-14T13:30:03;10.75;;;3.75;;
32872;SDS011;19224;52.462;16.898;2023-05-14T13:32:35;9.25;;;3.22;;
32872;SDS011;19224;52.462;16.898;2023-05-14T13:35:06;9.65;;;3.50;;
32872;SDS011;19224;52.462;16.898;2023-05-14T13:37:36;6.20;;;3.22;;
32872;SDS011;19224;52.462;16.898;2023-05-14T13:40:07;8.63;;;3.40;;
32872;SDS011;19224;52.462;16.898;2023-05-14T13:42:38;9.23;;;3.92;;
32872;SDS011;19224;52.462;16.898;2023-05-14T13:45:12;11.00;;;7.40;;
32872;SDS011;19224;52.462;16.898;2023-05-14T13:47:44;10.50;;;4.55;;
32872;SDS011;19224;52.462;16.898;2023-05-14T13:50:17;8.15;;;3.08;;
32872;SDS011;19224;52.462;16.898;2023-05-14T13:52:48;6.03;;;3.30;;
32872;SDS011;19224;52.462;16.898;2023-05-14T13:55:18;7.80;;;3.20;;
32872;SDS011;19224;52.462;16.898;2023-05-14T13:57:52;8.80;;;3.35;;
32872;SDS011;19224;52.462;16.898;2023-05-14T14:00:26;6.72;;;3.05;;
32872;SDS011;19224;52.462;16.898;2023-05-14T14:03:01;7.78;;;3.72;;
32872;SDS011;19224;52.462;16.898;2023-05-14T14:05:43;4.70;;;3.10;;
32872;SDS011;19224;52.462;16.898;2023-05-14T14:08:06;6.97;;;3.20;;
32872;SDS011;19224;52.462;16.898;2023-05-14T14:10:37;10.78;;;3.42;;
32872;SDS011;19224;52.462;16.898;2023-05-14T14:13:08;7.33;;;3.95;;
32872;SDS011;19224;52.462;16.898;2023-05-14T14:15:39;7.97;;;3.22;;
32872;SDS011;19224;52.462;16.898;2023-05-14T14:18:12;8.00;;;3.20;;
32872;SDS011;19224;52.462;16.898;2023-05-14T14:20:42;5.47;;;3.17;;
32872;SDS011;19224;52.462;16.898;2023-05-14T14:23:12;5.22;;;3.20;;
32872;SDS011;19224;52.462;16.898;2023-05-14T14:25:43;8.50;;;3.60;;
32872;SDS011;19224;52.462;16.898;2023-05-14T14:28:15;8.15;;;3.52;;
32872;SDS011;19224;52.462;16.898;2023-05-14T14:31:06;9.45;;;3.60;;
32872;SDS011;19224;52.462;16.898;2023-05-14T14:33:37;4.78;;;3.42;;
32872;SDS011;19224;52.462;16.898;2023-05-14T14:36:12;6.97;;;3.47;;
32872;SDS011;19224;52.462;16.898;2023-05-14T14:38:43;7.40;;;3.75;;
32872;SDS011;19224;52.462;16.898;2023-05-14T14:41:15;5.00;;;3.17;;
32872;SDS011;19224;52.462;16.898;2023-05-14T14:44:06;7.25;;;3.30;;
32872;SDS011;19224;52.462;16.898;2023-05-14T14:46:25;8.48;;;3.02;;
32872;SDS011;19224;52.462;16.898;2023-05-14T14:48:57;7.67;;;2.80;;
32872;SDS011;19224;52.462;16.898;2023-05-14T14:51:27;5.92;;;3.35;;
32872;SDS011;19224;52.462;16.898;2023-05-14T14:53:59;7.92;;;3.12;;
32872;SDS011;19224;52.462;16.898;2023-05-14T14:56:32;7.08;;;2.92;;
32872;SDS011;19224;52.462;16.898;2023-05-14T14:59:05;5.58;;;2.75;;